Time;durP1;ratioP1;P1;durP2;ratioP2;P2;SDS_P1;SDS_P2;PMS_P1;PMS_P2;Temp;Humidity;BMP_temperature;BMP_pressure;BME280_temperature;BME280_humidity;BME280_pressure;Samples;Min_cycle;Max_cycle;Signal;HPM_P1;HPM_P2
2022/11/03 00:02:09;;;;;;;17.95;7.55;;;;;;;7.77;61.64;93995.66;5093934;28;20115;-35
2022/11/03 00:04:35;;;;;;;20.42;10.43;;;;;;;7.80;61.29;93994.63;5093549;28;20089;-35
2022/11/03 00:07:00;;;;;;;25.10;11.77;;;;;;;7.90;60.38;94002.03;5093581;28;20040;-35
2022/11/03 00:09:26;;;;;;;19.17;11.18;;;;;;;8.02;60.37;93995.13;5093799;28;20024;-35
2022/11/03 00:11:51;;;;;;;20.85;9.93;;;;;;;7.96;60.81;93994.44;5093863;28;20028;-34
2022/11/03 00:14:17;;;;;;;19.17;10.05;;;;;;;7.85;61.31;94000.06;5093443;28;20062;-35
2022/11/03 00:16:43;;;;;;;16.90;9.95;;;;;;;7.81;61.15;93993.38;5093522;28;20027;-34
2022/11/03 00:19:10;;;;;;;22.15;11.07;;;;;;;7.92;60.58;93996.75;5093358;28;20656;-34
2022/11/03 00:21:36;;;;;;;21.95;11.98;;;;;;;7.90;60.62;93993.03;5093411;28;20020;-34
2022/11/03 00:24:02;;;;;;;21.38;11.35;;;;;;;7.61;61.94;93984.34;5093190;28;20032;-35
2022/11/03 00:26:29;;;;;;;17.88;10.48;;;;;;;7.42;62.59;93997.28;5092895;28;20035;-34
2022/11/03 00:28:59;;;;;;;12.32;6.82;;;;;;;7.40;62.50;93996.31;5093290;28;20038;-34
2022/11/03 00:31:30;;;;;;;15.50;7.68;;;;;;;7.47;62.59;93998.50;5093084;28;20095;-34
2022/11/03 00:33:55;;;;;;;10.93;6.65;;;;;;;7.39;62.85;93998.31;5093212;28;20035;-35
2022/11/03 00:36:23;;;;;;;13.50;6.68;;;;;;;7.46;63.02;93995.00;5093002;28;20035;-35
2022/11/03 00:38:49;;;;;;;11.77;6.95;;;;;;;7.30;63.25;93986.91;5092812;28;20048;-35
2022/11/03 00:41:19;;;;;;;14.70;6.85;;;;;;;7.45;63.03;94001.75;5093073;28;20078;-35
2022/11/03 00:43:45;;;;;;;12.30;6.45;;;;;;;7.62;62.65;94001.59;5093065;28;20032;-34
2022/11/03 00:46:10;;;;;;;13.18;8.52;;;;;;;7.65;61.71;93998.53;5092721;28;20089;-34
2022/11/03 00:48:37;;;;;;;20.38;9.98;;;;;;;7.41;61.52;93979.31;5093041;28;20061;-34
2022/11/03 00:51:11;;;;;;;18.65;10.68;;;;;;;7.46;61.81;93995.00;5092659;28;20739;-35
2022/11/03 00:53:42;;;;;;;19.17;10.63;;;;;;;7.41;61.30;93998.53;5092318;28;20024;-35
2022/11/03 00:56:11;;;;;;;28.00;10.57;;;;;;;7.52;60.58;94003.94;5092888;28;20424;-34
2022/11/03 00:58:36;;;;;;;26.02;9.68;;;;;;;7.59;60.84;94000.63;5092500;28;20511;-35
2022/11/03 01:01:13;;;;;;;17.23;10.43;;;;;;;7.44;61.39;94005.78;5092271;28;20067;-35
2022/11/03 01:03:41;;;;;;;19.60;9.77;;;;;;;7.34;61.56;94004.59;5092476;28;20035;-35
2022/11/03 01:08:53;;;;;;;18.83;9.55;;;;;;;7.03;63.31;93999.66;5077296;28;20584;-34
2022/11/03 01:14:16;;;;;;;15.55;9.32;;;;;;;6.98;63.21;94000.44;5074689;28;20038;-34
2022/11/03 01:16:41;;;;;;;14.95;10.68;;;;;;;7.14;62.97;93996.81;5092387;28;20059;-35
2022/11/03 01:19:07;;;;;;;18.45;11.65;;;;;;;7.14;63.38;93996.06;5092114;28;20038;-35
2022/11/03 01:21:33;;;;;;;17.40;10.68;;;;;;;6.97;63.84;93990.75;5092271;28;20028;-35
2022/11/03 01:24:03;;;;;;;18.35;10.70;;;;;;;7.12;62.93;93993.09;5092330;28;20023;-34
2022/11/03 01:26:29;;;;;;;15.73;10.35;;;;;;;7.00;62.91;93984.19;5091928;28;20023;-34
2022/11/03 01:28:54;;;;;;;13.82;6.18;;;;;;;7.15;62.79;93995.53;5091924;28;20042;-34
2022/11/03 01:31:22;;;;;;;15.32;8.85;;;;;;;7.02;62.60;94000.91;5092102;28;20118;-34
2022/11/03 01:33:49;;;;;;;22.35;9.32;;;;;;;6.94;62.99;93994.50;5091800;28;20028;-34
2022/11/03 01:36:15;;;;;;;16.48;8.60;;;;;;;6.95;63.18;93985.00;5091657;28;20085;-35
2022/11/03 01:38:40;;;;;;;17.08;7.63;;;;;;;6.80;63.43;93973.63;5091995;28;20024;-34
2022/11/03 01:41:09;;;;;;;10.18;7.03;;;;;;;6.91;63.23;93998.25;5091682;28;20036;-35
2022/11/03 01:43:37;;;;;;;12.13;7.70;;;;;;;6.96;63.29;93997.47;5091654;28;20058;-35
2022/11/03 01:46:11;;;;;;;12.82;7.57;;;;;;;7.15;62.96;93994.78;5091493;28;21044;-34
2022/11/03 01:48:42;;;;;;;13.32;7.28;;;;;;;7.18;63.00;93993.78;5091914;28;20039;-35
2022/11/03 01:51:08;;;;;;;11.50;7.78;;;;;;;7.21;63.12;93996.25;5073516;28;20710;-35
2022/11/03 01:53:35;;;;;;;15.07;8.60;;;;;;;7.09;63.43;93992.13;5091511;28;20102;-34
2022/11/03 01:56:01;;;;;;;12.18;7.55;;;;;;;7.06;63.93;93990.38;5073656;28;20043;-35
2022/11/03 01:58:29;;;;;;;13.65;7.13;;;;;;;7.15;63.62;93990.06;5073408;28;20020;-35
2022/11/03 02:00:58;;;;;;;17.00;7.75;;;;;;;7.15;63.83;93992.06;5073056;28;20051;-35
2022/11/03 02:03:25;;;;;;;15.00;7.10;;;;;;;7.28;64.07;93995.69;5073493;28;20027;-34
2022/11/03 02:05:51;;;;;;;13.95;6.40;;;;;;;7.39;63.02;93997.56;5072422;28;20039;-35
2022/11/03 02:08:20;;;;;;;15.38;7.05;;;;;;;7.35;62.36;94000.59;5091224;28;20020;-35
2022/11/03 02:10:47;;;;;;;12.65;7.53;;;;;;;7.47;61.98;94001.97;5091212;28;20435;-35
2022/11/03 02:13:24;;;;;;;12.50;7.97;;;;;;;7.46;61.42;93984.00;5091376;28;20027;-34
2022/11/03 02:15:52;;;;;;;16.80;8.32;;;;;;;7.58;61.77;93996.38;5091057;28;20042;-35
2022/11/03 02:18:19;;;;;;;15.45;8.43;;;;;;;7.56;61.81;93993.38;5091081;28;20024;-35
2022/11/03 02:20:49;;;;;;;14.20;8.95;;;;;;;7.39;62.65;93995.56;5091156;28;20032;-34
2022/11/03 02:23:23;;;;;;;15.68;8.52;;;;;;;7.33;63.12;93992.13;5072849;28;20023;-35
2022/11/03 02:25:50;;;;;;;14.63;9.18;;;;;;;7.21;63.65;94003.75;5090551;28;20023;-35
2022/11/03 02:28:18;;;;;;;14.27;8.38;;;;;;;7.13;64.15;93989.81;5072939;28;20024;-35
2022/11/03 02:30:49;;;;;;;18.63;9.05;;;;;;;7.13;64.98;93989.81;5090633;28;20034;-35
2022/11/03 02:33:40;;;;;;;13.75;8.48;;;;;;;6.92;64.76;93985.28;5090921;28;20042;-35
2022/11/03 02:36:11;;;;;;;13.35;8.15;;;;;;;7.15;64.02;93995.53;5090776;28;20020;-34
2022/11/03 02:38:46;;;;;;;9.63;6.65;;;;;;;7.03;64.33;93994.16;5090926;28;20130;-35
2022/11/03 02:41:11;;;;;;;9.25;6.75;;;;;;;7.18;63.92;94000.03;5090597;28;20028;-35
2022/11/03 02:43:37;;;;;;;13.05;7.40;;;;;;;7.30;63.56;94000.66;5072877;28;20030;-35
2022/11/03 02:46:04;;;;;;;10.13;7.03;;;;;;;7.24;63.77;93994.47;5072549;28;20403;-34
2022/11/03 02:48:29;;;;;;;13.38;6.97;;;;;;;7.13;63.89;93995.31;5072579;28;20032;-35
2022/11/03 02:50:55;;;;;;;12.55;7.25;;;;;;;7.04;64.53;93992.91;5090766;28;20046;-35
2022/11/03 02:53:20;;;;;;;13.30;7.55;;;;;;;7.09;64.51;93992.13;5090535;28;20093;-35
2022/11/03 02:56:12;;;;;;;12.68;5.90;;;;;;;7.03;64.63;93996.91;5090438;28;20020;-35
2022/11/03 02:58:52;;;;;;;13.07;7.15;;;;;;;7.03;64.62;93999.66;5090419;28;20035;-35
2022/11/03 03:01:47;;;;;;;15.75;7.93;;;;;;;7.16;64.61;94005.28;5090163;28;20054;-35
2022/11/03 03:04:27;;;;;;;22.25;8.65;;;;;;;7.30;62.99;94003.41;5072716;28;20043;-35
2022/11/03 03:07:05;;;;;;;19.33;9.13;;;;;;;7.21;62.22;94001.72;5072388;28;20028;-34
2022/11/03 03:09:43;;;;;;;17.00;10.10;;;;;;;7.20;62.71;94000.25;5090319;28;20504;-34
2022/11/03 03:12:10;;;;;;;18.48;10.30;;;;;;;7.10;63.11;94001.09;5072706;28;20051;-34
2022/11/03 03:14:41;;;;;;;17.23;9.82;;;;;;;6.83;63.75;94011.81;5072264;28;20031;-34
2022/11/03 03:17:30;;;;;;;20.80;9.98;;;;;;;6.93;63.84;94006.72;5074545;28;20114;-34
2022/11/03 03:20:31;;;;;;;19.58;9.73;;;;;;;6.81;64.98;94006.06;5061481;28;20044;-34
2022/11/03 03:23:22;;;;;;;13.57;8.90;;;;;;;6.65;65.08;94019.91;5076407;28;20111;-34
2022/11/03 03:26:11;;;;;;;22.08;9.07;;;;;;;6.38;66.13;94015.34;5076246;28;20028;-35
2022/11/03 03:28:47;;;;;;;17.52;9.93;;;;;;;6.45;66.89;94015.56;5093549;28;20074;-34
2022/11/03 03:31:13;;;;;;;14.60;8.45;;;;;;;6.44;66.81;94010.56;5076068;28;20120;-34
2022/11/03 03:33:39;;;;;;;11.85;7.88;;;;;;;6.46;66.42;94013.56;5076067;28;20492;-34
2022/11/03 03:36:08;;;;;;;15.70;7.45;;;;;;;6.43;65.48;94017.31;5094126;28;20038;-35
2022/11/03 03:38:40;;;;;;;12.48;6.60;;;;;;;6.34;64.96;94023.84;5076044;28;20032;-35
2022/11/03 03:41:07;;;;;;;16.30;7.80;;;;;;;6.40;64.37;94016.34;5076141;28;20032;-34
2022/11/03 03:43:33;;;;;;;15.75;11.27;;;;;;;6.28;64.88;94003.19;5093986;28;20024;-34
2022/11/03 03:46:03;;;;;;;18.42;12.57;;;;;;;6.50;64.52;94023.00;5076129;28;20095;-34
2022/11/03 03:48:29;;;;;;;18.55;13.75;;;;;;;6.33;64.68;94016.88;5075856;28;20487;-34
2022/11/03 03:50:54;;;;;;;22.10;12.90;;;;;;;6.02;65.13;94003.59;5093811;28;20027;-35
2022/11/03 03:53:20;;;;;;;21.30;10.75;;;;;;;6.04;65.47;94023.75;5075744;28;20024;-35
2022/11/03 03:55:47;;;;;;;16.63;9.38;;;;;;;5.96;65.82;94013.81;5093748;28;20412;-34
2022/11/03 03:58:14;;;;;;;22.05;11.70;;;;;;;5.95;66.12;94015.84;5075619;28;20023;-35
2022/11/03 04:00:40;;;;;;;23.30;10.82;;;;;;;5.85;65.85;94003.66;5093548;28;20044;-34
2022/11/03 04:03:12;;;;;;;23.63;10.77;;;;;;;5.89;65.54;94019.84;5093543;28;20063;-34
2022/11/03 04:05:37;;;;;;;18.23;11.70;;;;;;;5.60;66.66;94004.72;5075506;28;20028;-35
2022/11/03 04:08:03;;;;;;;25.02;11.05;;;;;;;5.79;66.09;94008.38;5075417;28;20035;-35
2022/11/03 04:10:28;;;;;;;15.90;10.73;;;;;;;5.81;65.79;94016.84;5093723;28;20020;-35
2022/11/03 04:23:52;;;;;;;25.40;12.43;;;;;;;5.64;66.61;94007.19;5077915;28;20523;-34
2022/11/03 04:26:21;;;;;;;24.05;12.05;;;;;;;5.61;66.41;94002.72;5092889;28;20032;-34
2022/11/03 04:28:47;;;;;;;20.50;12.45;;;;;;;5.66;66.19;94010.91;5092662;28;20422;-35
2022/11/03 04:31:14;;;;;;;24.15;14.10;;;;;;;5.78;65.64;94004.13;5093106;28;20028;-34
2022/11/03 04:33:40;;;;;;;28.55;14.93;;;;;;;5.71;66.00;94010.16;5075234;28;20511;-34
2022/11/03 04:36:25;;;;;;;24.25;15.23;;;;;;;5.57;66.29;94005.72;5093271;28;20050;-35
2022/11/03 04:38:51;;;;;;;26.13;13.40;;;;;;;5.51;66.08;94007.72;5092933;28;20020;-34
2022/11/03 04:41:19;;;;;;;18.08;10.75;;;;;;;5.37;66.47;94006.75;5093138;28;20077;-35
2022/11/03 04:43:45;;;;;;;21.27;10.70;;;;;;;5.30;66.59;93988.13;5093043;28;20035;-35
2022/11/03 04:46:14;;;;;;;22.25;12.30;;;;;;;5.47;66.26;94009.22;5092762;28;20032;-35
2022/11/03 04:48:40;;;;;;;28.05;13.13;;;;;;;5.47;66.13;94001.03;5093079;28;20051;-34
2022/11/03 04:51:21;;;;;;;19.60;12.45;;;;;;;5.37;66.76;94003.31;5092924;28;20028;-34
2022/11/03 04:53:53;;;;;;;23.73;13.50;;;;;;;5.48;66.18;94005.25;5092903;28;20046;-35
2022/11/03 04:56:23;;;;;;;20.75;12.52;;;;;;;5.50;66.15;94011.69;5074585;28;20028;-34
2022/11/03 04:58:49;;;;;;;21.88;12.15;;;;;;;5.36;66.21;94010.00;5074571;28;20036;-34
2022/11/03 05:01:18;;;;;;;25.90;11.40;;;;;;;5.12;66.80;94016.03;5092279;28;20044;-34
2022/11/03 05:03:45;;;;;;;21.38;10.02;;;;;;;5.16;67.48;94015.75;5074346;28;20488;-35
2022/11/03 05:06:14;;;;;;;17.55;11.00;;;;;;;5.19;66.64;94017.50;5057733;28;20039;-35
2022/11/03 05:08:41;;;;;;;16.85;8.48;;;;;;;5.26;65.97;94020.47;5074357;28;20512;-35
2022/11/03 05:11:39;;;;;;;19.60;9.52;;;;;;;5.41;65.08;94017.47;5074268;28;20054;-35
2022/11/03 05:14:25;;;;;;;21.52;11.15;;;;;;;5.24;65.48;94017.50;5055137;28;20482;-35
2022/11/03 05:16:52;;;;;;;24.92;12.90;;;;;;;5.25;66.15;94024.47;5092498;28;20036;-34
2022/11/03 05:19:32;;;;;;;20.88;12.05;;;;;;;5.14;66.47;94021.00;5092022;28;20492;-35
2022/11/03 05:22:00;;;;;;;23.95;13.25;;;;;;;5.03;67.23;94019.00;5092004;28;20055;-34
2022/11/03 05:24:26;;;;;;;18.20;11.18;;;;;;;5.13;66.76;94028.44;5074227;28;20039;-34
2022/11/03 05:26:53;;;;;;;26.65;14.00;;;;;;;5.15;67.03;94019.75;5091641;28;20038;-34
2022/11/03 05:29:37;;;;;;;18.40;12.05;;;;;;;5.27;66.74;94035.66;5092240;28;20028;-34
2022/11/03 05:32:09;;;;;;;20.05;11.68;;;;;;;5.30;67.23;94012.78;5092121;28;20020;-35
2022/11/03 05:34:51;;;;;;;20.35;11.57;;;;;;;5.50;66.87;94032.88;5073903;28;20415;-35
2022/11/03 05:37:33;;;;;;;25.05;11.85;;;;;;;5.11;68.24;94035.69;5091899;28;20032;-34
2022/11/03 05:40:16;;;;;;;33.97;14.82;;;;;;;5.19;68.35;94034.69;5072446;28;20047;-35
2022/11/03 05:42:44;;;;;;;19.67;12.23;;;;;;;5.41;67.77;94042.13;5073815;28;20043;-35
2022/11/03 05:45:23;;;;;;;29.35;14.65;;;;;;;5.28;67.68;94039.88;5073599;28;20024;-35
2022/11/03 05:47:52;;;;;;;40.95;15.43;;;;;;;5.47;67.68;94045.59;5091957;28;20109;-35
2022/11/03 05:50:24;;;;;;;88.57;16.27;;;;;;;5.67;66.79;94047.28;5091647;28;20027;-35
2022/11/03 05:52:53;;;;;;;162.02;62.35;;;;;;;5.70;66.67;94049.00;5074068;28;20046;-35
2022/11/03 05:55:26;;;;;;;149.10;60.38;;;;;;;5.80;66.34;94061.19;5073450;28;20024;-35
2022/11/03 05:57:57;;;;;;;121.40;54.20;;;;;;;5.85;66.57;94054.97;5091379;28;20059;-35
2022/11/03 06:00:31;;;;;;;65.13;33.67;;;;;;;5.95;65.55;94053.44;5091067;28;20071;-35
2022/11/03 06:02:57;;;;;;;75.85;31.13;;;;;;;5.86;66.28;94053.72;5091586;28;20080;-34
2022/11/03 06:05:24;;;;;;;62.63;28.73;;;;;;;6.16;65.45;94065.56;5091572;28;20170;-35
2022/11/03 06:07:53;;;;;;;63.55;26.42;;;;;;;6.05;66.53;94065.59;5091490;28;20024;-34
2022/11/03 06:10:39;;;;;;;38.53;18.42;;;;;;;6.06;66.94;94061.63;5091476;28;20060;-35
2022/11/03 06:13:10;;;;;;;29.27;14.15;;;;;;;6.09;67.79;94066.84;5073118;28;20031;-35
2022/11/03 06:15:36;;;;;;;21.00;13.38;;;;;;;6.21;68.48;94067.53;5073061;28;20024;-35
2022/11/03 06:18:23;;;;;;;29.08;13.82;;;;;;;6.24;69.33;94074.75;5091086;28;20660;-35
2022/11/03 06:20:55;;;;;;;35.25;20.83;;;;;;;6.52;69.73;94080.84;5072908;28;20028;-35
2022/11/03 06:23:21;;;;;;;86.22;27.75;;;;;;;6.84;69.31;94075.69;5091053;28;20070;-35
2022/11/03 06:25:47;;;;;;;100.82;45.92;;;;;;;7.14;67.54;94081.94;5072543;28;20102;-35
2022/11/03 06:28:35;;;;;;;83.13;41.72;;;;;;;7.38;66.96;94081.25;5090763;28;20024;-35
2022/11/03 06:31:03;;;;;;;121.25;56.88;;;;;;;7.63;65.81;94085.50;5090827;28;20016;-35
2022/11/03 06:33:33;;;;;;;60.80;31.38;;;;;;;7.91;63.65;94082.47;5090828;28;20019;-35
2022/11/03 06:36:08;;;;;;;91.75;43.13;;;;;;;8.07;61.97;94085.06;5090821;28;20031;-35
2022/11/03 06:38:34;;;;;;;80.95;38.00;;;;;;;8.46;61.48;94083.88;5072672;28;20016;-35
2022/11/03 06:40:59;;;;;;;58.90;26.90;;;;;;;9.18;60.59;94082.88;5073003;28;20081;-35
2022/11/03 06:43:41;;;;;;;33.65;17.55;;;;;;;10.21;57.35;94076.06;5090608;28;20675;-35
2022/11/03 06:46:24;;;;;;;23.00;15.15;;;;;;;11.56;54.43;94078.88;5090822;28;20100;-35
2022/11/03 06:49:00;;;;;;;28.52;15.50;;;;;;;13.19;51.13;94083.72;5090610;28;20030;-35
2022/11/03 06:51:29;;;;;;;20.95;12.02;;;;;;;14.65;47.13;94072.81;5090393;28;20024;-35
2022/11/03 06:53:56;;;;;;;;;;;;;;;15.67;44.56;94073.47;5091320;28;20015;-36
2022/11/03 06:56:24;;;;;;;27.77;10.82;;;;;;;16.87;42.20;94084.13;5072353;28;19908;-36
2022/11/03 06:58:51;;;;;;;16.83;9.35;;;;;;;17.80;40.22;94065.03;5072743;28;20404;-36
2022/11/03 07:01:22;;;;;;;26.23;9.73;;;;;;;18.90;37.81;94078.28;5090198;28;20428;-36
2022/11/03 07:03:51;;;;;;;17.10;8.10;;;;;;;19.58;36.38;94081.75;5072534;28;20527;-34
2022/11/03 07:06:25;;;;;;;12.07;7.53;;;;;;;20.25;35.12;94078.72;5072345;28;20034;-34
2022/11/03 07:08:55;;;;;;;15.57;7.65;;;;;;;20.96;33.98;94075.81;5090670;28;20035;-34
2022/11/03 07:11:29;;;;;;;13.07;7.70;;;;;;;21.58;33.31;94085.47;5072350;28;20020;-34
2022/11/03 07:13:56;;;;;;;16.33;7.10;;;;;;;22.33;32.21;94081.69;5070078;28;20028;-34
2022/11/03 07:16:28;;;;;;;12.65;6.90;;;;;;;22.85;31.79;94084.84;5070064;28;20035;-34
2022/11/03 07:18:54;;;;;;;18.00;8.13;;;;;;;23.30;31.14;94080.44;5070270;28;20051;-34
2022/11/03 07:22:04;;;;;;;10.35;6.43;;;;;;;23.75;30.69;94078.06;5070272;28;20497;-34
2022/11/03 07:24:37;;;;;;;14.75;7.40;;;;;;;24.49;29.05;94078.56;5038747;28;20044;-34
2022/11/03 07:27:24;;;;;;;11.45;6.18;;;;;;;25.30;28.15;94080.59;5071079;28;20728;-34
2022/11/03 07:29:51;;;;;;;8.57;6.88;;;;;;;25.63;27.10;94053.91;5090075;28;20032;-34
2022/11/03 07:32:21;;;;;;;24.92;9.07;;;;;;;26.37;27.10;94076.47;5090279;28;20051;-34
2022/11/03 07:34:48;;;;;;;22.05;9.13;;;;;;;26.68;26.07;94082.84;5072151;28;20048;-34
2022/11/03 07:37:18;;;;;;;10.15;6.88;;;;;;;26.73;26.44;94081.69;5090056;28;20103;-34
2022/11/03 07:39:43;;;;;;;22.40;7.85;;;;;;;27.28;26.00;94078.38;5071994;28;20103;-34
2022/11/03 07:42:14;;;;;;;14.80;7.78;;;;;;;27.96;25.63;94074.78;5090013;28;20106;-34
2022/11/03 07:44:40;;;;;;;105.60;12.70;;;;;;;27.83;24.44;94055.81;5089956;28;20024;-34
2022/11/03 07:47:11;;;;;;;14.05;7.13;;;;;;;27.76;25.39;94064.06;5090212;28;20020;-34
2022/11/03 07:49:36;;;;;;;30.85;17.60;;;;;;;27.50;25.39;94067.97;5071928;28;20030;-34
2022/11/03 07:52:08;;;;;;;25.35;12.90;;;;;;;27.19;25.90;94070.91;5089970;28;20016;-34
2022/11/03 07:54:33;;;;;;;27.45;15.63;;;;;;;26.62;26.81;94067.69;5071891;28;20020;-34
2022/11/03 07:57:13;;;;;;;26.85;15.98;;;;;;;26.17;27.25;94059.31;5089876;28;20582;-34
2022/11/03 07:59:41;;;;;;;12.73;8.25;;;;;;;25.93;27.45;94058.91;5071749;28;20060;-34
2022/11/03 08:02:25;;;;;;;11.73;7.47;;;;;;;25.94;27.19;94057.53;5071838;28;20047;-34
2022/11/03 08:04:50;;;;;;;16.17;8.48;;;;;;;25.06;28.47;94053.94;5093168;28;20028;-34
2022/11/03 08:07:16;;;;;;;16.85;8.35;;;;;;;25.34;28.13;94051.78;5093758;28;20035;-34
2022/11/03 08:09:41;;;;;;;13.30;8.95;;;;;;;25.81;28.32;94046.28;5093391;28;20032;-34
2022/11/03 08:12:07;;;;;;;13.10;8.02;;;;;;;26.48;27.52;94047.25;5093762;28;20077;-34
2022/11/03 08:14:32;;;;;;;10.35;7.78;;;;;;;27.13;26.54;94045.13;5093382;28;20495;-34
2022/11/03 08:16:58;;;;;;;13.77;10.23;;;;;;;27.78;26.12;94047.16;5093362;28;20031;-34
2022/11/03 08:19:23;;;;;;;14.48;8.30;;;;;;;28.04;25.09;94041.78;5093626;28;20028;-34
2022/11/03 08:21:49;;;;;;;11.05;8.02;;;;;;;28.47;24.38;94035.59;5093418;28;20031;-34
2022/11/03 08:24:14;;;;;;;15.00;8.32;;;;;;;28.60;24.36;94025.41;5093254;28;20028;-35
2022/11/03 08:26:40;;;;;;;12.27;7.80;;;;;;;29.18;23.39;94027.50;5093214;28;20549;-34
2022/11/03 08:29:05;;;;;;;13.25;7.75;;;;;;;29.66;23.23;94031.94;5093389;28;20023;-34
2022/11/03 08:31:31;;;;;;;13.20;7.60;;;;;;;29.83;22.95;94028.25;5093000;28;20023;-34
2022/11/03 08:33:56;;;;;;;11.93;8.13;;;;;;;29.82;22.87;94026.78;5092952;28;20028;-34
2022/11/03 08:36:21;;;;;;;13.65;9.10;;;;;;;29.54;22.60;94016.59;5093057;28;20020;-34
2022/11/03 08:38:47;;;;;;;15.73;7.80;;;;;;;28.82;23.48;94012.00;5092892;28;20084;-34
2022/11/03 08:41:12;;;;;;;11.98;7.78;;;;;;;28.92;24.26;94012.34;5093228;28;20024;-34
2022/11/03 08:43:38;;;;;;;12.90;8.23;;;;;;;29.10;24.29;94018.66;5074739;28;20028;-34
2022/11/03 08:46:03;;;;;;;13.00;8.32;;;;;;;29.43;23.35;94015.53;5093050;28;20031;-34
2022/11/03 08:48:29;;;;;;;13.10;9.15;;;;;;;29.36;23.30;94013.88;5093012;28;20581;-34
2022/11/03 08:50:55;;;;;;;13.48;7.88;;;;;;;29.55;22.61;94012.34;5092697;28;20480;-34
2022/11/03 08:53:24;;;;;;;10.05;7.05;;;;;;;29.83;22.28;94004.72;5093024;28;20028;-34
2022/11/03 08:55:50;;;;;;;14.57;8.30;;;;;;;29.52;22.56;94010.84;5092908;28;20032;-34
2022/11/03 08:58:16;;;;;;;13.48;7.85;;;;;;;29.33;22.82;94003.81;5092618;28;20077;-34
2022/11/03 09:00:41;;;;;;;12.82;8.73;;;;;;;29.49;22.55;93984.44;5092310;28;20040;-34
2022/11/03 09:03:07;;;;;;;14.07;7.93;;;;;;;29.66;22.14;94002.75;5092754;28;20031;-34
2022/11/03 09:05:32;;;;;;;11.30;7.57;;;;;;;29.44;22.21;94002.03;5092468;28;20036;-34
2022/11/03 09:07:58;;;;;;;12.50;7.55;;;;;;;29.14;22.50;93987.50;5092346;28;20031;-34
2022/11/03 09:10:24;;;;;;;12.52;7.00;;;;;;;29.92;21.85;93990.09;5092717;28;20048;-34
2022/11/03 09:12:50;;;;;;;11.65;6.18;;;;;;;30.10;21.82;93989.19;5092514;28;20020;-34
2022/11/03 09:15:15;;;;;;;11.15;6.65;;;;;;;29.98;22.05;93989.53;5092263;28;20028;-34
2022/11/03 09:17:41;;;;;;;8.20;6.45;;;;;;;30.42;21.53;93993.00;5092310;28;20622;-34
2022/11/03 09:20:07;;;;;;;14.20;7.68;;;;;;;30.19;21.93;93979.47;5092344;28;20481;-34
2022/11/03 09:22:33;;;;;;;14.13;6.85;;;;;;;29.94;21.10;93958.81;5092145;28;20046;-34
2022/11/03 09:24:58;;;;;;;14.45;7.90;;;;;;;29.67;21.48;93970.75;5091762;28;20028;-34
2022/11/03 09:27:24;;;;;;;9.40;6.30;;;;;;;29.54;21.98;93965.38;5092303;28;20028;-34
2022/11/03 09:29:49;;;;;;;11.60;6.15;;;;;;;29.76;21.99;93960.38;5092185;28;20031;-34
2022/11/03 09:32:15;;;;;;;13.27;6.50;;;;;;;30.05;22.05;93968.38;5091817;28;20032;-34
2022/11/03 09:34:41;;;;;;;15.35;6.88;;;;;;;30.40;20.92;93956.63;5092165;28;20103;-34
2022/11/03 09:37:06;;;;;;;11.70;8.02;;;;;;;30.55;20.78;93957.75;5092122;28;20031;-34
2022/11/03 09:39:32;;;;;;;17.23;10.15;;;;;;;30.49;20.42;93961.13;5092062;28;20453;-34
2022/11/03 09:41:59;;;;;;;13.60;6.90;;;;;;;30.78;20.61;93954.09;5091907;28;20418;-34
2022/11/03 09:44:24;;;;;;;9.77;6.32;;;;;;;30.84;20.02;93951.38;5091707;28;20481;-34
2022/11/03 09:46:50;;;;;;;9.48;5.95;;;;;;;30.69;20.57;93953.13;5073475;28;20028;-34
2022/11/03 09:49:18;;;;;;;35.65;16.23;;;;;;;30.47;20.36;93946.13;5091875;28;20503;-34
2022/11/03 09:51:44;;;;;;;17.10;10.97;;;;;;;30.41;20.90;93937.38;5091580;28;20081;-34
2022/11/03 09:54:14;;;;;;;14.80;9.07;;;;;;;30.46;21.09;93936.09;5091845;28;20056;-34
2022/11/03 09:56:40;;;;;;;14.02;6.30;;;;;;;30.50;20.73;93939.06;5091470;28;20046;-34
2022/11/03 09:59:16;;;;;;;11.95;6.03;;;;;;;30.77;20.21;93929.84;5091710;28;20024;-34
2022/11/03 10:01:44;;;;;;;23.00;13.35;;;;;;;30.89;20.25;93933.00;5090979;28;20052;-34
2022/11/03 10:04:11;;;;;;;9.03;5.43;;;;;;;30.91;20.08;93918.81;5073370;28;20024;-34
2022/11/03 10:06:38;;;;;;;8.10;3.97;;;;;;;30.46;20.62;93924.72;5091220;28;20020;-34
2022/11/03 10:09:04;;;;;;;7.45;4.63;;;;;;;30.18;20.42;93912.50;5073472;28;20031;-34
2022/11/03 10:11:30;;;;;;;7.15;4.47;;;;;;;30.46;20.58;93922.59;5073424;28;20099;-34
2022/11/03 10:13:56;;;;;;;30.52;5.35;;;;;;;30.94;19.53;93914.63;5091124;28;20465;-34
2022/11/03 10:16:23;;;;;;;12.35;4.57;;;;;;;31.06;19.74;93908.47;5072606;28;20040;-34
2022/11/03 10:18:49;;;;;;;10.48;4.55;;;;;;;31.02;19.75;93911.22;5091319;28;20080;-34
2022/11/03 10:21:17;;;;;;;8.45;4.10;;;;;;;30.88;19.72;93905.91;5091197;28;20513;-34
2022/11/03 10:23:43;;;;;;;9.45;4.28;;;;;;;31.01;19.21;93901.97;5091327;28;20124;-35
2022/11/03 10:26:10;;;;;;;10.05;4.18;;;;;;;31.33;19.32;93902.03;5090041;28;20094;-34
2022/11/03 10:28:36;;;;;;;7.63;3.53;;;;;;;31.40;19.06;93898.63;5090794;28;20019;-34
2022/11/03 10:31:07;;;;;;;12.00;4.07;;;;;;;31.09;19.32;93890.03;5091093;28;20070;-34
2022/11/03 10:33:39;;;;;;;10.45;4.07;;;;;;;30.75;19.14;93887.03;5090791;28;20034;-34
2022/11/03 10:36:25;;;;;;;56.80;7.43;;;;;;;30.67;19.13;93887.53;5072957;28;20020;-34
2022/11/03 10:38:51;;;;;;;6.57;3.75;;;;;;;30.73;19.22;93881.28;5073500;28;20105;-34
2022/11/03 10:41:22;;;;;;;6.53;3.88;;;;;;;30.73;19.62;93877.69;5090897;28;20028;-34
2022/11/03 10:44:14;;;;;;;9.00;5.15;;;;;;;30.85;19.73;93873.00;5090860;28;20028;-34
2022/11/03 10:46:55;;;;;;;9.13;4.43;;;;;;;30.87;19.58;93870.25;5072773;28;20032;-34
2022/11/03 10:49:20;;;;;;;9.93;5.03;;;;;;;30.79;19.45;93878.56;5090893;28;20034;-34
2022/11/03 10:51:48;;;;;;;8.13;5.07;;;;;;;30.90;19.61;93859.59;5090488;28;20020;-34
2022/11/03 10:54:16;;;;;;;10.15;4.10;;;;;;;31.21;18.93;93858.91;5072519;28;20028;-35
2022/11/03 10:56:42;;;;;;;8.52;4.18;;;;;;;31.45;18.41;93856.66;5072467;28;20035;-34
2022/11/03 10:59:23;;;;;;;12.10;4.30;;;;;;;31.27;18.51;93856.94;5072452;28;20071;-35
2022/11/03 11:01:49;;;;;;;8.30;4.22;;;;;;;30.99;19.01;93847.00;5090570;28;20036;-34
2022/11/03 11:04:18;;;;;;;8.68;4.55;;;;;;;31.06;18.59;93840.75;5072738;28;20534;-34
2022/11/03 11:06:45;;;;;;;5.43;3.42;;;;;;;30.98;17.93;93845.53;5072301;28;20052;-34
2022/11/03 11:09:24;;;;;;;9.27;3.72;;;;;;;30.85;18.92;93838.06;5090319;28;20042;-34
2022/11/03 11:12:05;;;;;;;6.63;4.45;;;;;;;30.79;19.37;93830.09;5072573;28;20404;-34
2022/11/03 11:14:33;;;;;;;5.45;3.67;;;;;;;30.86;19.12;93826.03;5090590;28;20469;-34
2022/11/03 11:16:59;;;;;;;6.60;3.85;;;;;;;30.83;18.77;93830.19;5090655;28;20035;-34
2022/11/03 11:19:27;;;;;;;6.30;3.83;;;;;;;30.75;19.26;93829.28;5090238;28;20059;-34
2022/11/03 11:21:52;;;;;;;12.30;4.35;;;;;;;30.86;18.81;93823.19;5072419;28;20029;-34
2022/11/03 11:24:42;;;;;;;11.30;6.00;;;;;;;30.53;19.39;93820.88;5090273;28;20518;-34
2022/11/03 11:27:46;;;;;;;10.52;4.13;;;;;;;30.65;18.90;93809.78;5090169;28;20071;-34
2022/11/03 11:30:17;;;;;;;6.43;3.22;;;;;;;30.66;19.02;93811.97;5090092;28;20055;-34
2022/11/03 11:32:48;;;;;;;13.27;3.80;;;;;;;30.55;18.13;93812.38;5090353;28;20106;-34
2022/11/03 11:35:36;;;;;;;10.63;5.15;;;;;;;30.47;18.94;93806.50;5090156;28;20024;-35
2022/11/03 11:38:39;;;;;;;9.73;4.05;;;;;;;30.60;18.81;93808.94;5092136;28;20032;-34
2022/11/03 11:41:04;;;;;;;8.68;3.70;;;;;;;30.47;18.62;93797.94;5094039;28;20031;-34
2022/11/03 11:43:30;;;;;;;6.60;3.45;;;;;;;30.12;18.73;93802.00;5075887;28;20020;-34
2022/11/03 11:46:20;;;;;;;5.25;3.40;;;;;;;30.04;18.94;93796.06;5094171;28;20015;-34
2022/11/03 11:48:49;;;;;;;8.27;3.13;;;;;;;29.85;19.24;93797.69;5093947;28;20046;-34
2022/11/03 11:51:15;;;;;;;9.80;3.30;;;;;;;29.35;19.14;93784.09;5076049;28;20035;-34
2022/11/03 11:53:41;;;;;;;4.68;3.28;;;;;;;29.39;19.23;93789.94;5093760;28;20024;-34
2022/11/03 11:56:11;;;;;;;11.07;3.40;;;;;;;29.16;19.72;93794.22;5094073;28;20115;-34
2022/11/03 11:58:42;;;;;;;6.57;2.97;;;;;;;29.05;19.95;93783.91;5093729;28;20028;-34
2022/11/03 12:01:30;;;;;;;4.13;2.67;;;;;;;29.03;19.34;93781.00;5093511;28;20047;-34